Time;durP1;ratioP1;P1;durP2;ratioP2;P2;SDS_P1;SDS_P2;PMS_P1;PMS_P2;Temp;Humidity;BMP_temperature;BMP_pressure;BME280_temperature;BME280_humidity;BME280_pressure;Samples;Min_cycle;Max_cycle;Signal;HPM_P1;HPM_P2
2022/01/23 00:00:18;;;;;;;8.77;6.40;;;4.10;99.90;;;;;;6227694;23;20040;-86
2022/01/23 00:02:50;;;;;;;9.63;6.50;;;4.10;99.90;;;;;;6215734;23;20379;-86
2022/01/23 00:05:18;;;;;;;9.93;6.82;;;4.00;99.90;;;;;;6215527;23;20012;-86
2022/01/23 00:07:45;;;;;;;9.13;6.55;;;4.10;99.90;;;;;;6217539;23;20009;-86
2022/01/23 00:10:12;;;;;;;7.93;6.35;;;4.00;99.90;;;;;;6215579;23;20102;-86
2022/01/23 00:12:47;;;;;;;9.07;6.88;;;4.10;99.90;;;;;;6215592;23;20091;-86
2022/01/23 00:17:58;;;;;;;10.57;6.85;;;4.10;99.90;;;;;;6217492;23;20011;-86
2022/01/23 00:20:24;;;;;;;10.43;6.22;;;4.10;99.90;;;;;;6215385;23;20032;-86
2022/01/23 00:23:00;;;;;;;8.65;6.45;;;4.10;99.90;;;;;;6215482;23;20001;-86
2022/01/23 00:30:58;;;;;;;8.35;6.20;;;4.00;99.90;;;;;;6217367;23;20035;-86
2022/01/23 00:33:24;;;;;;;8.48;6.57;;;4.10;99.90;;;;;;6216815;23;20024;-86
2022/01/23 00:35:51;;;;;;;12.00;6.55;;;4.10;99.90;;;;;;6215298;23;19996;-86
2022/01/23 00:38:17;;;;;;;8.55;7.10;;;4.10;99.90;;;;;;6215287;23;20031;-86
2022/01/23 00:40:46;;;;;;;8.73;6.53;;;4.10;99.90;;;;;;6215356;23;20000;-86
2022/01/23 00:43:30;;;;;;;8.80;6.55;;;4.10;99.90;;;;;;6215928;23;20036;-86
2022/01/23 00:46:08;;;;;;;8.95;6.40;;;4.10;99.90;;;;;;6215359;23;20005;-86
2022/01/23 00:48:38;;;;;;;9.57;6.68;;;4.10;99.90;;;;;;6220227;23;20099;-86
2022/01/23 00:51:04;;;;;;;9.27;6.55;;;4.10;99.90;;;;;;6220602;23;20006;-86
2022/01/23 00:53:29;;;;;;;7.72;5.82;;;4.10;99.90;;;;;;6247302;23;20004;-86
2022/01/23 00:55:55;;;;;;;10.05;6.43;;;4.10;99.90;;;;;;6220119;23;20007;-86
2022/01/23 00:58:21;;;;;;;9.88;6.53;;;4.10;99.90;;;;;;6220123;23;20329;-86
2022/01/23 01:00:47;;;;;;;9.10;6.30;;;4.00;99.90;;;;;;6220117;23;20066;-86
2022/01/23 01:03:13;;;;;;;8.88;6.80;;;4.10;99.90;;;;;;6246967;23;20000;-86
2022/01/23 01:05:38;;;;;;;10.82;6.30;;;4.10;99.90;;;;;;6220062;23;20008;-86
2022/01/23 01:08:05;;;;;;;9.40;5.97;;;4.10;99.90;;;;;;6220112;23;20000;-86
2022/01/23 01:10:43;;;;;;;8.93;6.53;;;4.10;99.90;;;;;;6246903;23;20000;-86
2022/01/23 01:13:12;;;;;;;9.13;5.88;;;4.10;99.90;;;;;;6220008;23;20004;-86
2022/01/23 01:32:07;;;;;;;8.95;6.07;;;4.10;99.90;;;;;;6247175;23;20015;-86
2022/01/23 01:34:40;;;;;;;8.20;6.05;;;4.10;99.90;;;;;;6219808;23;20339;-86
2022/01/23 01:37:09;;;;;;;10.18;6.75;;;4.10;99.90;;;;;;6246808;23;20051;-86
2022/01/23 01:39:35;;;;;;;8.82;6.38;;;4.00;99.90;;;;;;6219569;23;20344;-86
2022/01/23 01:42:01;;;;;;;8.20;6.03;;;4.10;99.90;;;;;;6220442;23;20011;-86
2022/01/23 01:44:27;;;;;;;9.85;6.32;;;4.10;99.90;;;;;;6219741;23;20376;-86
2022/01/23 01:46:53;;;;;;;7.03;5.60;;;4.10;99.90;;;;;;6219480;23;20047;-86
2022/01/23 01:49:26;;;;;;;9.02;6.00;;;4.10;99.90;;;;;;6219523;23;20027;-86
2022/01/23 01:51:54;;;;;;;8.17;5.80;;;4.10;99.90;;;;;;6219683;23;20030;-86
2022/01/23 01:54:22;;;;;;;9.40;6.22;;;4.10;99.90;;;;;;6219442;23;20015;-86
2022/01/23 01:56:51;;;;;;;8.75;6.28;;;4.10;99.90;;;;;;6219517;23;20295;-86
2022/01/23 02:00:11;;;;;;;10.05;6.63;;;4.10;99.90;;;;;;6219460;23;20010;-86
2022/01/23 02:10:28;;;;;;;9.80;6.18;;;4.00;99.90;;;;;;6246772;23;19965;-86
2022/01/23 02:13:12;;;;;;;9.40;6.43;;;4.10;99.90;;;;;;6246273;23;20027;-86
2022/01/23 02:24:11;;;;;;;9.02;5.78;;;4.10;99.90;;;;;;6238350;23;20065;-86
2022/01/23 02:56:35;;;;;;;7.63;5.70;;;4.10;99.90;;;;;;6246793;23;20004;-86
2022/01/23 02:59:11;;;;;;;10.35;6.75;;;4.00;99.90;;;;;;6219213;23;20079;-86
2022/01/23 03:01:47;;;;;;;9.32;6.70;;;4.10;99.90;;;;;;6246036;23;20007;-86
2022/01/23 03:04:13;;;;;;;8.98;6.65;;;4.00;99.90;;;;;;6219185;23;20007;-86
2022/01/23 03:06:55;;;;;;;10.43;6.63;;;4.00;99.90;;;;;;6245955;23;20084;-86
2022/01/23 03:09:53;;;;;;;10.35;6.80;;;4.10;99.90;;;;;;6245996;23;20058;-86
2022/01/23 03:30:29;;;;;;;10.45;6.50;;;4.00;99.90;;;;;;6246224;23;20053;-86
2022/01/23 03:32:55;;;;;;;9.75;6.35;;;4.00;99.90;;;;;;6218919;23;20049;-86
2022/01/23 03:35:22;;;;;;;9.38;6.03;;;4.00;99.90;;;;;;6218865;23;20008;-86
2022/01/23 03:37:49;;;;;;;9.95;6.18;;;4.00;99.90;;;;;;6218856;23;20007;-86
2022/01/23 03:40:16;;;;;;;8.38;5.68;;;4.10;99.90;;;;;;6218943;23;20004;-86
2022/01/23 03:42:44;;;;;;;9.02;6.22;;;4.00;99.90;;;;;;6218858;23;20007;-86
2022/01/23 03:50:38;;;;;;;8.40;5.77;;;4.00;99.90;;;;;;6255964;23;20008;-86
2022/01/23 03:53:05;;;;;;;9.15;5.78;;;4.00;99.90;;;;;;6218750;23;20027;-85
2022/01/23 03:55:31;;;;;;;8.45;6.15;;;4.00;99.90;;;;;;6218860;23;20337;-86
2022/01/23 03:57:57;;;;;;;8.75;6.05;;;4.10;99.90;;;;;;6218786;23;20389;-86
2022/01/23 04:00:23;;;;;;;8.60;6.13;;;4.10;99.90;;;;;;6245709;23;20003;-86
2022/01/23 04:02:49;;;;;;;9.90;6.30;;;4.00;99.90;;;;;;6220506;23;20007;-86
2022/01/23 04:05:15;;;;;;;8.68;6.07;;;4.00;99.90;;;;;;6220601;23;20103;-86
2022/01/23 04:07:41;;;;;;;7.75;5.40;;;4.00;99.90;;;;;;6247407;23;20032;-87
2022/01/23 04:10:08;;;;;;;7.90;5.60;;;4.00;99.90;;;;;;6220608;23;20004;-86
2022/01/23 04:12:54;;;;;;;10.02;6.20;;;4.00;99.90;;;;;;6220558;23;20007;-86
2022/01/23 04:20:39;;;;;;;8.93;5.93;;;4.00;99.90;;;;;;6257610;23;20047;-86
2022/01/23 04:45:19;;;;;;;9.50;5.63;;;4.00;99.90;;;;;;6247624;23;19906;-86
2022/01/23 05:01:19;;;;;;;8.65;5.75;;;4.00;99.90;;;;;;6247467;23;20011;-86
2022/01/23 05:06:35;;;;;;;7.83;5.70;;;4.00;99.90;;;;;;6251382;23;20004;-87
2022/01/23 05:09:01;;;;;;;8.35;5.32;;;4.00;99.90;;;;;;6246943;23;20003;-87
2022/01/23 05:11:27;;;;;;;7.43;5.55;;;4.00;99.90;;;;;;6220057;23;20004;-86
2022/01/23 05:13:53;;;;;;;8.35;5.53;;;4.00;99.90;;;;;;6219954;23;20432;-86
2022/01/23 05:16:19;;;;;;;8.10;5.80;;;4.00;99.90;;;;;;6219963;23;20010;-86
2022/01/23 05:18:45;;;;;;;7.50;5.35;;;4.00;99.90;;;;;;6219957;23;20011;-86
2022/01/23 05:23:42;;;;;;;9.45;5.57;;;4.00;99.90;;;;;;6257729;23;20008;-86
2022/01/23 05:26:08;;;;;;;7.13;5.05;;;4.00;99.90;;;;;;6246805;23;20082;-86
2022/01/23 05:28:33;;;;;;;8.27;5.60;;;4.00;99.90;;;;;;6219835;23;20004;-86
2022/01/23 05:30:59;;;;;;;7.65;5.45;;;4.00;99.90;;;;;;6219803;23;20008;-86
2022/01/23 05:33:25;;;;;;;6.82;5.28;;;4.00;99.90;;;;;;6219673;23;20368;-86
2022/01/23 05:35:50;;;;;;;7.97;5.63;;;4.00;99.90;;;;;;6219870;23;20000;-86
2022/01/23 05:38:16;;;;;;;7.53;5.20;;;4.00;99.90;;;;;;6246593;23;20488;-86
2022/01/23 05:40:43;;;;;;;7.75;5.18;;;4.00;99.90;;;;;;6219838;23;20008;-86
2022/01/23 05:43:09;;;;;;;7.75;5.18;;;4.00;99.90;;;;;;6219711;23;20425;-86
2022/01/23 05:45:37;;;;;;;8.10;5.65;;;4.00;99.90;;;;;;6220684;23;20075;-86
2022/01/23 05:48:03;;;;;;;7.40;5.45;;;4.00;99.90;;;;;;6246286;23;20321;-86
2022/01/23 05:50:29;;;;;;;7.30;5.18;;;4.00;99.90;;;;;;6219543;23;20007;-86
2022/01/23 05:52:55;;;;;;;8.23;5.30;;;4.00;99.90;;;;;;6219605;23;20000;-86
2022/01/23 05:55:21;;;;;;;8.02;5.50;;;4.00;99.90;;;;;;6219485;23;20062;-86
2022/01/23 05:57:47;;;;;;;9.18;5.28;;;4.00;99.90;;;;;;6219588;23;20004;-86
2022/01/23 06:00:13;;;;;;;7.60;5.53;;;4.00;99.90;;;;;;6219641;23;20004;-86
2022/01/23 06:02:39;;;;;;;7.95;5.30;;;4.00;99.90;;;;;;6219331;23;20038;-86
2022/01/23 06:05:05;;;;;;;7.68;5.82;;;4.00;99.90;;;;;;6219433;23;20004;-86
2022/01/23 06:07:31;;;;;;;7.22;5.32;;;4.00;99.90;;;;;;6219754;23;20404;-86
2022/01/23 06:09:56;;;;;;;7.32;5.25;;;4.00;99.90;;;;;;6246630;23;20004;-86
2022/01/23 06:12:22;;;;;;;8.60;5.88;;;4.00;99.90;;;;;;6246582;23;20000;-87
2022/01/23 06:14:48;;;;;;;7.60;5.13;;;4.00;99.90;;;;;;6219309;23;20091;-87
2022/01/23 06:17:13;;;;;;;7.18;5.25;;;4.00;99.90;;;;;;6246635;23;20325;-87
2022/01/23 06:19:39;;;;;;;6.95;5.03;;;4.00;99.90;;;;;;6219480;23;20006;-87
2022/01/23 06:22:05;;;;;;;6.75;5.03;;;4.00;99.90;;;;;;6246211;23;20000;-86
2022/01/23 06:24:32;;;;;;;6.57;4.90;;;4.00;99.90;;;;;;6219195;23;20030;-86
2022/01/23 06:27:00;;;;;;;8.77;5.97;;;4.00;99.90;;;;;;6219343;23;20008;-86
2022/01/23 06:29:30;;;;;;;5.97;4.63;;;4.00;99.90;;;;;;6219284;23;20091;-86
2022/01/23 06:31:58;;;;;;;7.63;5.32;;;4.00;99.90;;;;;;6219336;23;20429;-86
2022/01/23 06:34:24;;;;;;;8.40;5.20;;;4.00;99.90;;;;;;6219245;23;20421;-86
2022/01/23 06:36:52;;;;;;;8.18;5.50;;;4.00;99.90;;;;;;6219226;23;20007;-87
2022/01/23 06:39:19;;;;;;;10.23;5.78;;;4.00;99.90;;;;;;6219243;23;20083;-86
2022/01/23 06:41:45;;;;;;;9.02;5.95;;;4.00;99.90;;;;;;6219251;23;20004;-87
2022/01/23 06:44:11;;;;;;;7.78;5.45;;;4.00;99.90;;;;;;6219161;23;20008;-87
2022/01/23 06:46:41;;;;;;;6.50;4.63;;;4.00;99.90;;;;;;6219089;23;20012;-86
2022/01/23 06:49:08;;;;;;;8.48;5.35;;;4.00;99.90;;;;;;6219182;23;20095;-86
2022/01/23 06:51:34;;;;;;;9.10;5.72;;;4.00;99.90;;;;;;6219108;23;20087;-86
2022/01/23 06:54:00;;;;;;;10.32;5.43;;;4.00;99.90;;;;;;6219139;23;20032;-86
2022/01/23 06:56:25;;;;;;;8.15;5.55;;;4.00;99.90;;;;;;6219064;23;20046;-86
2022/01/23 06:58:51;;;;;;;8.07;5.50;;;4.00;99.90;;;;;;6219110;23;20000;-86
2022/01/23 07:01:16;;;;;;;7.95;5.18;;;4.00;99.90;;;;;;6219186;23;20008;-86
2022/01/23 07:03:42;;;;;;;7.57;5.10;;;4.00;99.90;;;;;;6219185;23;20008;-86
2022/01/23 07:06:08;;;;;;;7.63;5.45;;;4.00;99.90;;;;;;6219093;23;20011;-86
2022/01/23 07:08:34;;;;;;;6.65;5.10;;;4.00;99.90;;;;;;6219036;23;20008;-86
2022/01/23 07:11:00;;;;;;;7.43;5.30;;;4.00;99.90;;;;;;6219123;23;20088;-86
2022/01/23 07:13:26;;;;;;;7.43;5.25;;;4.00;99.90;;;;;;6218966;23;20004;-86
2022/01/23 07:15:52;;;;;;;7.93;5.18;;;4.00;99.90;;;;;;6219040;23;20000;-86
2022/01/23 07:18:18;;;;;;;7.05;5.03;;;4.00;99.90;;;;;;6245885;23;20011;-86
2022/01/23 07:20:45;;;;;;;7.60;5.45;;;4.00;99.90;;;;;;6219052;23;20004;-86
2022/01/23 07:23:11;;;;;;;8.77;5.57;;;4.00;99.90;;;;;;6218944;23;20401;-86
2022/01/23 07:25:39;;;;;;;5.82;4.65;;;4.00;99.90;;;;;;6245852;23;20413;-86
2022/01/23 07:28:10;;;;;;;6.90;5.15;;;4.00;99.90;;;;;;6218950;23;20027;-86
2022/01/23 07:30:41;;;;;;;9.50;5.35;;;4.00;99.90;;;;;;6219111;23;20490;-86
2022/01/23 07:33:07;;;;;;;7.28;5.20;;;4.00;99.90;;;;;;6219075;23;20471;-86
2022/01/23 07:35:33;;;;;;;7.72;5.57;;;4.00;99.90;;;;;;6218834;23;20004;-86
2022/01/23 07:37:59;;;;;;;6.97;5.40;;;4.00;99.90;;;;;;6220905;23;20460;-86
2022/01/23 07:40:25;;;;;;;6.93;4.95;;;4.00;99.90;;;;;;6220960;23;20081;-86
2022/01/23 07:42:51;;;;;;;6.93;4.78;;;4.00;99.90;;;;;;6220921;23;20000;-86
2022/01/23 07:45:17;;;;;;;7.68;5.18;;;4.00;99.90;;;;;;6220842;23;20008;-86
2022/01/23 07:47:43;;;;;;;7.00;5.40;;;4.00;99.90;;;;;;6215606;23;20012;-86
2022/01/23 07:50:10;;;;;;;7.40;5.32;;;4.00;99.90;;;;;;6215755;23;20013;-86
2022/01/23 07:52:36;;;;;;;7.53;5.63;;;4.00;99.90;;;;;;6215739;23;20011;-86
2022/01/23 07:55:09;;;;;;;9.45;6.22;;;4.00;99.90;;;;;;6217184;23;20004;-86
2022/01/23 07:57:36;;;;;;;8.57;5.78;;;4.00;99.90;;;;;;6215672;23;20003;-86
2022/01/23 08:00:04;;;;;;;8.88;5.47;;;4.00;99.90;;;;;;6215669;23;20050;-86
2022/01/23 08:02:30;;;;;;;9.10;5.75;;;4.00;99.90;;;;;;6215611;23;20341;-86
2022/01/23 08:04:56;;;;;;;8.40;5.82;;;4.00;99.90;;;;;;6215650;23;20090;-86
2022/01/23 08:07:30;;;;;;;9.98;6.20;;;4.00;99.90;;;;;;6215556;23;20005;-86
2022/01/23 08:10:03;;;;;;;9.07;5.95;;;4.00;99.90;;;;;;6215613;23;20062;-86
2022/01/23 08:12:30;;;;;;;11.02;6.63;;;4.00;99.90;;;;;;6217137;23;20070;-87
2022/01/23 08:14:57;;;;;;;8.45;5.88;;;4.00;99.90;;;;;;6215491;23;20004;-86
2022/01/23 08:17:25;;;;;;;8.52;6.35;;;4.00;99.90;;;;;;6215572;23;20373;-86
2022/01/23 08:19:52;;;;;;;9.93;6.55;;;4.00;99.90;;;;;;6217429;23;20347;-86
2022/01/23 08:22:20;;;;;;;9.55;6.40;;;4.00;99.90;;;;;;6215435;23;20087;-86
2022/01/23 08:24:46;;;;;;;9.82;6.55;;;4.00;99.90;;;;;;6215381;23;20008;-86
2022/01/23 08:27:11;;;;;;;10.88;6.65;;;4.00;99.90;;;;;;6215430;23;20000;-86
2022/01/23 08:29:37;;;;;;;9.38;6.72;;;4.00;99.90;;;;;;6215387;23;20004;-86
2022/01/23 08:32:03;;;;;;;9.40;6.72;;;4.00;99.90;;;;;;6215408;23;20008;-86
2022/01/23 08:34:29;;;;;;;9.38;6.15;;;4.00;99.90;;;;;;6215920;23;20433;-86
2022/01/23 08:36:55;;;;;;;10.10;6.63;;;4.00;99.90;;;;;;6215395;23;20011;-86
2022/01/23 08:39:24;;;;;;;9.93;6.93;;;4.00;99.90;;;;;;6215316;23;20337;-86
2022/01/23 08:41:50;;;;;;;10.05;6.25;;;4.00;99.90;;;;;;6215267;23;20032;-86
2022/01/23 08:44:27;;;;;;;10.32;7.00;;;4.00;99.90;;;;;;6215696;23;20333;-86
2022/01/23 08:46:53;;;;;;;10.90;6.70;;;4.00;99.90;;;;;;6218610;23;20009;-86
2022/01/23 08:49:21;;;;;;;11.98;7.32;;;4.00;99.90;;;;;;6220261;23;20027;-86
2022/01/23 08:51:48;;;;;;;11.10;7.22;;;4.00;99.90;;;;;;6220201;23;20012;-86
2022/01/23 08:54:14;;;;;;;9.07;6.63;;;4.00;99.90;;;;;;6220071;23;20004;-86
2022/01/23 08:56:41;;;;;;;12.57;7.57;;;4.00;99.90;;;;;;6220135;23;20027;-86
2022/01/23 08:59:07;;;;;;;10.40;7.20;;;4.00;99.90;;;;;;6220171;23;20413;-86
2022/01/23 09:01:34;;;;;;;11.63;7.43;;;4.00;99.90;;;;;;6220050;23;20174;-86
2022/01/23 09:04:00;;;;;;;10.85;7.57;;;4.00;99.90;;;;;;6220088;23;20004;-86
2022/01/23 09:06:26;;;;;;;11.63;7.43;;;4.00;99.90;;;;;;6219940;23;20008;-87
2022/01/23 09:08:54;;;;;;;10.38;7.22;;;4.00;99.90;;;;;;6220017;23;20001;-87
2022/01/23 09:11:41;;;;;;;10.02;7.57;;;4.00;99.90;;;;;;6219990;23;20317;-86
2022/01/23 09:14:07;;;;;;;11.15;7.78;;;4.00;99.90;;;;;;6219967;23;20011;-86
2022/01/23 09:16:45;;;;;;;13.45;8.20;;;4.10;99.90;;;;;;6219960;23;20384;-86
2022/01/23 09:19:11;;;;;;;10.80;6.90;;;4.10;99.90;;;;;;6246729;23;20038;-87
2022/01/23 09:21:39;;;;;;;13.68;7.70;;;4.10;99.90;;;;;;6219814;23;20057;-86
2022/01/23 09:24:05;;;;;;;13.30;8.32;;;4.10;99.90;;;;;;6219803;23;20336;-86
2022/01/23 09:26:33;;;;;;;12.27;7.88;;;4.00;99.90;;;;;;6219831;23;20456;-86
2022/01/23 09:29:01;;;;;;;11.63;7.95;;;4.10;99.90;;;;;;6219719;23;20027;-86
2022/01/23 09:31:48;;;;;;;12.38;8.63;;;4.10;99.90;;;;;;6219755;23;20008;-86
2022/01/23 09:34:18;;;;;;;13.02;8.13;;;4.10;99.90;;;;;;6219737;23;20368;-86
2022/01/23 09:36:44;;;;;;;11.77;7.88;;;4.10;99.90;;;;;;6246599;23;20010;-85
2022/01/23 09:39:14;;;;;;;12.98;8.30;;;4.10;99.90;;;;;;6246604;23;20321;-86
2022/01/23 09:41:45;;;;;;;13.63;8.38;;;4.10;99.90;;;;;;6219604;23;20007;-86
2022/01/23 09:44:12;;;;;;;13.48;7.97;;;4.10;99.90;;;;;;6219739;23;20004;-86
2022/01/23 09:46:38;;;;;;;12.80;8.70;;;4.20;99.90;;;;;;6219373;23;20004;-85
2022/01/23 09:49:04;;;;;;;12.93;8.32;;;4.10;99.90;;;;;;6219720;23;20095;-86
2022/01/23 09:51:34;;;;;;;12.88;9.13;;;4.10;99.90;;;;;;6219609;23;20421;-86
2022/01/23 09:54:00;;;;;;;16.35;10.13;;;4.10;99.90;;;;;;6219470;23;20004;-86
2022/01/23 09:56:29;;;;;;;14.60;8.98;;;4.20;99.90;;;;;;6219515;23;20004;-86
2022/01/23 09:58:56;;;;;;;13.13;9.15;;;4.10;99.90;;;;;;6219237;23;20417;-86
2022/01/23 10:01:23;;;;;;;13.63;8.98;;;4.20;99.90;;;;;;6219545;23;20027;-86
2022/01/23 10:03:50;;;;;;;14.07;9.38;;;4.20;99.90;;;;;;6219428;23;20341;-86
2022/01/23 10:06:16;;;;;;;13.10;9.43;;;4.20;99.90;;;;;;6219372;23;20015;-87
2022/01/23 10:08:42;;;;;;;13.85;9.27;;;4.20;99.90;;;;;;6246671;23;20425;-87
2022/01/23 10:11:11;;;;;;;13.15;9.13;;;4.20;99.90;;;;;;6219390;23;20008;-86
2022/01/23 10:13:38;;;;;;;13.80;9.32;;;4.20;99.90;;;;;;6219351;23;20095;-86
2022/01/23 10:16:04;;;;;;;15.38;9.18;;;4.20;99.90;;;;;;6246307;23;19996;-86
2022/01/23 10:18:31;;;;;;;12.73;8.85;;;4.20;99.90;;;;;;6219393;23;20046;-86
2022/01/23 10:20:57;;;;;;;15.25;9.70;;;4.20;99.90;;;;;;6219406;23;20028;-86
2022/01/23 10:23:24;;;;;;;13.70;9.70;;;4.20;99.90;;;;;;6219384;23;20000;-86
2022/01/23 10:25:51;;;;;;;16.05;9.85;;;4.20;99.90;;;;;;6219414;23;20377;-86
2022/01/23 10:28:20;;;;;;;12.75;8.95;;;4.20;99.90;;;;;;6246187;23;20000;-86
2022/01/23 10:30:50;;;;;;;14.40;9.10;;;4.20;99.90;;;;;;6246150;23;20023;-86
2022/01/23 10:33:23;;;;;;;14.02;9.43;;;4.20;99.90;;;;;;6219499;23;20050;-86
2022/01/23 10:35:55;;;;;;;16.55;9.52;;;4.20;99.90;;;;;;6246111;23;20004;-86
2022/01/23 10:38:22;;;;;;;14.70;9.60;;;4.20;99.90;;;;;;6219250;23;20000;-86
2022/01/23 10:41:02;;;;;;;15.13;9.50;;;4.30;99.90;;;;;;6219247;23;20004;-86
2022/01/23 10:48:59;;;;;;;13.15;9.13;;;4.30;99.90;;;;;;6245916;23;20340;-86
2022/01/23 10:51:28;;;;;;;13.75;9.73;;;4.30;99.90;;;;;;6219181;23;20494;-86
2022/01/23 10:54:01;;;;;;;14.93;10.07;;;4.30;99.90;;;;;;6219019;23;20004;-85
2022/01/23 10:56:33;;;;;;;15.60;10.05;;;4.30;99.90;;;;;;6219143;23;20091;-86
2022/01/23 10:59:01;;;;;;;15.38;9.57;;;4.30;99.90;;;;;;6245951;23;20004;-86
2022/01/23 11:01:28;;;;;;;14.50;10.18;;;4.30;99.90;;;;;;6219026;23;20034;-86
2022/01/23 11:04:11;;;;;;;16.98;10.25;;;4.30;99.90;;;;;;6246320;23;20067;-87
2022/01/23 11:06:53;;;;;;;13.85;9.50;;;4.30;99.90;;;;;;6219114;23;20012;-86
2022/01/23 11:09:23;;;;;;;15.05;9.35;;;4.30;99.90;;;;;;6219048;23;20011;-86
2022/01/23 11:11:51;;;;;;;15.25;9.85;;;4.40;99.90;;;;;;6221095;23;20008;-85
2022/01/23 11:17:23;;;;;;;12.45;9.43;;;4.40;99.90;;;;;;6248072;23;20012;-86
2022/01/23 11:19:51;;;;;;;15.68;10.90;;;4.40;99.90;;;;;;6221221;23;20333;-86
2022/01/23 11:22:23;;;;;;;14.32;9.23;;;4.30;99.90;;;;;;6221011;23;20008;-86
2022/01/23 11:24:49;;;;;;;14.63;10.25;;;4.40;99.90;;;;;;6247886;23;20046;-86
2022/01/23 11:27:19;;;;;;;13.32;9.82;;;4.40;99.90;;;;;;6247848;23;20045;-86
2022/01/23 11:30:01;;;;;;;15.73;10.10;;;4.30;99.90;;;;;;6221007;23;20011;-86
2022/01/23 11:32:30;;;;;;;13.50;9.30;;;4.30;99.90;;;;;;6221059;23;20016;-86
2022/01/23 11:35:04;;;;;;;14.90;9.02;;;4.30;99.90;;;;;;6220865;23;20058;-86
2022/01/23 11:37:30;;;;;;;15.80;10.23;;;4.40;99.90;;;;;;6220917;23;20475;-86
2022/01/23 11:40:02;;;;;;;12.70;9.43;;;4.30;99.90;;;;;;6221131;23;20011;-86
2022/01/23 11:53:44;;;;;;;13.27;9.45;;;4.30;99.90;;;;;;6248155;23;20008;-85
2022/01/23 11:56:24;;;;;;;13.82;9.65;;;4.30;99.90;;;;;;6220633;23;20008;-86
2022/01/23 11:59:17;;;;;;;13.10;9.50;;;4.30;99.90;;;;;;6220752;23;20000;-86
2022/01/23 12:01:48;;;;;;;14.85;9.90;;;4.30;99.90;;;;;;6220801;23;20000;-86
2022/01/23 12:04:19;;;;;;;14.93;9.57;;;4.30;99.90;;;;;;6220795;23;20015;-85
2022/01/23 12:07:11;;;;;;;14.38;9.80;;;4.30;99.90;;;;;;6220585;23;20087;-85
2022/01/23 12:09:39;;;;;;;13.52;9.55;;;4.30;99.90;;;;;;6220566;23;20075;-86
2022/01/23 12:18:29;;;;;;;14.00;9.57;;;4.30;99.90;;;;;;6247549;23;20027;-85
2022/01/23 12:20:56;;;;;;;14.80;10.13;;;4.30;99.90;;;;;;6220626;23;20004;-86
2022/01/23 12:23:22;;;;;;;15.20;9.18;;;4.30;99.90;;;;;;6246985;23;20451;-86
2022/01/23 12:25:54;;;;;;;15.30;9.75;;;4.30;99.90;;;;;;6220417;23;20011;-86
2022/01/23 12:28:25;;;;;;;13.68;9.65;;;4.30;99.90;;;;;;6220528;23;20028;-86
2022/01/23 12:31:13;;;;;;;13.70;9.02;;;4.30;99.90;;;;;;6220657;23;20007;-87
2022/01/23 12:33:39;;;;;;;14.65;9.93;;;4.30;99.90;;;;;;6201238;23;20336;-86
2022/01/23 12:36:25;;;;;;;14.75;9.70;;;4.30;99.90;;;;;;6220483;23;20004;-86
2022/01/23 12:38:57;;;;;;;13.13;9.18;;;4.30;99.90;;;;;;6220562;23;20345;-86
2022/01/23 12:41:29;;;;;;;15.90;9.60;;;4.30;99.90;;;;;;6220420;23;20350;-86
2022/01/23 12:44:09;;;;;;;12.98;9.60;;;4.30;99.90;;;;;;6220638;23;20102;-86
2022/01/23 12:46:40;;;;;;;13.52;9.52;;;4.30;99.90;;;;;;6220367;23;20012;-86
2022/01/23 12:49:33;;;;;;;12.73;8.93;;;4.30;99.90;;;;;;6220410;23;20024;-86
2022/01/23 12:52:09;;;;;;;16.73;11.15;;;4.30;99.90;;;;;;6247157;23;20011;-86
2022/01/23 12:54:56;;;;;;;12.85;9.60;;;4.30;99.90;;;;;;6220034;23;20008;-86
2022/01/23 12:57:39;;;;;;;15.60;10.32;;;4.30;99.90;;;;;;6220233;23;20007;-86
2022/01/23 13:00:21;;;;;;;15.20;9.75;;;4.30;99.90;;;;;;6246976;23;19996;-86
2022/01/23 13:02:50;;;;;;;17.67;11.32;;;4.30;99.90;;;;;;6220152;23;20004;-86
2022/01/23 13:05:17;;;;;;;13.82;9.45;;;4.40;99.90;;;;;;6220431;23;20008;-86
2022/01/23 13:12:55;;;;;;;16.63;10.38;;;4.40;99.90;;;;;;6257448;23;20054;-86
2022/01/23 13:15:44;;;;;;;14.65;9.75;;;4.40;99.90;;;;;;6219920;23;20058;-86
2022/01/23 13:32:21;;;;;;;12.75;8.65;;;4.40;99.90;;;;;;6247098;23;20135;-86
2022/01/23 13:34:52;;;;;;;13.98;9.15;;;4.30;99.90;;;;;;6246075;23;20003;-86
2022/01/23 13:37:23;;;;;;;14.38;9.15;;;4.30;99.90;;;;;;6219847;23;20028;-85
2022/01/23 13:39:59;;;;;;;14.02;8.65;;;4.30;99.90;;;;;;6220121;23;20000;-86
2022/01/23 13:59:34;;;;;;;11.50;8.00;;;4.40;99.90;;;;;;6246817;23;20463;-86
2022/01/23 14:04:39;;;;;;;13.15;8.20;;;4.30;99.90;;;;;;6246384;23;20015;-86
2022/01/23 14:07:05;;;;;;;11.23;7.68;;;4.40;99.90;;;;;;6219550;23;20008;-86
2022/01/23 14:09:37;;;;;;;11.25;7.72;;;4.30;99.90;;;;;;6219484;23;20078;-86
2022/01/23 14:12:11;;;;;;;11.32;7.53;;;4.40;99.90;;;;;;6246899;23;20075;-86
2022/01/23 14:14:52;;;;;;;10.93;7.63;;;4.30;99.90;;;;;;6219432;23;20026;-86
2022/01/23 14:17:19;;;;;;;12.23;8.07;;;4.40;99.90;;;;;;6246347;23;20433;-86
2022/01/23 14:19:57;;;;;;;9.75;7.50;;;4.40;99.90;;;;;;6219816;23;20008;-85
2022/01/23 14:22:31;;;;;;;11.65;7.30;;;4.40;99.90;;;;;;6219742;23;20373;-85
2022/01/23 14:25:08;;;;;;;10.20;7.32;;;4.30;99.90;;;;;;6219434;23;20012;-86
2022/01/23 14:27:34;;;;;;;13.88;7.95;;;4.40;99.90;;;;;;6219573;23;20004;-86
2022/01/23 14:30:06;;;;;;;9.70;6.63;;;4.40;99.90;;;;;;6246151;23;20010;-85
2022/01/23 14:32:42;;;;;;;10.55;7.25;;;4.40;99.90;;;;;;6219424;23;20083;-86
2022/01/23 14:35:13;;;;;;;10.70;7.25;;;4.30;99.90;;;;;;6219113;23;20415;-86
2022/01/23 14:37:40;;;;;;;10.27;6.80;;;4.30;99.90;;;;;;6219356;23;20437;-86
2022/01/23 14:40:23;;;;;;;10.32;6.93;;;4.40;99.90;;;;;;6219349;23;20008;-86
2022/01/23 14:43:08;;;;;;;10.90;7.20;;;4.40;99.90;;;;;;6219244;23;20000;-86
2022/01/23 14:45:39;;;;;;;;;;;4.40;99.90;;;;;;6219574;23;20318;-86
2022/01/23 14:48:06;;;;;;;9.05;6.63;;;4.30;99.90;;;;;;6213861;23;19911;-86
2022/01/23 14:50:35;;;;;;;9.05;6.47;;;4.40;99.90;;;;;;6216095;23;20008;-86
2022/01/23 14:53:16;;;;;;;10.57;7.05;;;4.40;99.90;;;;;;6214209;23;20009;-86
2022/01/23 14:55:46;;;;;;;10.00;6.78;;;4.40;99.90;;;;;;6215529;23;20329;-86
2022/01/23 14:58:12;;;;;;;10.65;6.97;;;4.40;99.90;;;;;;6215687;23;19997;-86
2022/01/23 15:00:40;;;;;;;9.07;6.60;;;4.30;99.90;;;;;;6214085;23;20421;-86
2022/01/23 15:03:07;;;;;;;9.88;6.95;;;4.30;99.90;;;;;;6214031;23;20003;-86
2022/01/23 15:05:35;;;;;;;12.23;6.65;;;4.30;99.90;;;;;;6215628;23;19997;-86
2022/01/23 15:08:04;;;;;;;9.43;6.82;;;4.30;99.90;;;;;;6214070;23;20011;-85
2022/01/23 15:10:30;;;;;;;9.98;6.85;;;4.40;99.90;;;;;;6214037;23;20318;-86
2022/01/23 15:12:56;;;;;;;7.93;6.20;;;4.30;99.90;;;;;;6213990;23;20036;-86
2022/01/23 15:15:22;;;;;;;8.55;5.82;;;4.30;99.90;;;;;;6213904;23;20005;-85
2022/01/23 15:17:48;;;;;;;8.60;6.00;;;4.30;99.90;;;;;;6214021;23;20426;-86
2022/01/23 15:20:13;;;;;;;8.30;6.10;;;4.30;99.90;;;;;;6213937;23;20005;-86
2022/01/23 15:22:39;;;;;;;8.13;6.00;;;4.30;99.90;;;;;;6213887;23;20004;-86
2022/01/23 15:25:08;;;;;;;9.88;6.47;;;4.30;99.90;;;;;;6215559;23;20004;-86
2022/01/23 15:27:34;;;;;;;9.55;6.05;;;4.30;99.90;;;;;;6213913;23;20027;-86
2022/01/23 15:30:00;;;;;;;8.25;6.18;;;4.30;99.90;;;;;;6213957;23;20012;-86
2022/01/23 15:32:26;;;;;;;8.18;5.82;;;4.30;99.90;;;;;;6215566;23;19997;-86
2022/01/23 15:34:52;;;;;;;12.52;7.07;;;4.30;99.90;;;;;;6215494;23;20024;-86
2022/01/23 15:37:19;;;;;;;8.90;6.40;;;4.30;99.90;;;;;;6213912;23;20008;-86
2022/01/23 15:39:45;;;;;;;9.18;5.97;;;4.30;99.90;;;;;;6213950;23;20035;-86
2022/01/23 15:42:11;;;;;;;8.07;6.32;;;4.30;99.90;;;;;;6214291;23;20012;-86
2022/01/23 15:44:37;;;;;;;11.38;6.03;;;4.30;99.90;;;;;;6215512;23;20430;-86
2022/01/23 15:47:03;;;;;;;9.68;6.35;;;4.30;99.90;;;;;;6213697;23;20031;-86
2022/01/23 15:49:30;;;;;;;9.02;6.15;;;4.30;99.90;;;;;;6214312;23;20025;-85
2022/01/23 15:51:56;;;;;;;8.10;6.13;;;4.30;99.90;;;;;;6213840;23;20005;-86
2022/01/23 15:54:22;;;;;;;9.05;6.38;;;4.30;99.90;;;;;;6213756;23;20013;-86
2022/01/23 15:56:50;;;;;;;8.40;6.30;;;4.30;99.90;;;;;;6214037;23;20008;-85
2022/01/23 15:59:17;;;;;;;9.55;6.28;;;4.30;99.90;;;;;;6215807;23;20089;-85
2022/01/23 16:01:46;;;;;;;8.35;5.95;;;4.30;99.90;;;;;;6215714;23;20005;-85
2022/01/23 16:04:19;;;;;;;8.95;6.15;;;4.30;99.90;;;;;;6215729;23;20016;-86
2022/01/23 16:06:45;;;;;;;8.00;5.43;;;4.30;99.90;;;;;;6215752;23;20058;-86
2022/01/23 16:09:12;;;;;;;8.80;6.07;;;4.30;99.90;;;;;;6215636;23;20573;-86
2022/01/23 16:11:38;;;;;;;8.82;6.28;;;4.30;99.90;;;;;;6215586;23;20016;-86
2022/01/23 16:14:04;;;;;;;9.60;6.03;;;4.30;99.90;;;;;;6215499;23;20008;-85
2022/01/23 16:16:30;;;;;;;7.85;5.85;;;4.30;99.90;;;;;;6215587;23;20469;-86
2022/01/23 16:18:57;;;;;;;8.63;5.93;;;4.30;99.90;;;;;;6217132;23;20369;-85
2022/01/23 16:21:24;;;;;;;9.48;6.22;;;4.30;99.90;;;;;;6215556;23;20063;-85
2022/01/23 16:23:50;;;;;;;10.00;6.00;;;4.30;99.90;;;;;;6215485;23;20084;-85
2022/01/23 16:26:17;;;;;;;8.98;6.13;;;4.30;99.90;;;;;;6215462;23;20441;-86
2022/01/23 16:28:44;;;;;;;9.02;6.38;;;4.30;99.90;;;;;;6215483;23;20434;-86